createdAt,value
2023-03-29T00:01:42.473Z,7.33
2023-03-29T00:06:03.558Z,7.28
2023-03-29T00:10:15.900Z,7.37
2023-03-29T00:14:28.975Z,7.38
2023-03-29T00:18:41.008Z,7.40
2023-03-29T00:22:52.675Z,7.43
2023-03-29T00:27:04.797Z,7.51
2023-03-29T00:31:18.236Z,7.48
2023-03-29T00:35:30.195Z,7.49
2023-03-29T00:39:42.643Z,7.45
2023-03-29T00:43:59.591Z,7.42
2023-03-29T00:48:13.935Z,7.45
2023-03-29T00:52:30.181Z,7.48
2023-03-29T00:56:45.983Z,7.50
2023-03-29T01:01:26.098Z,7.45
2023-03-29T01:05:41.835Z,7.51
2023-03-29T01:09:59.579Z,7.49
2023-03-29T01:14:20.284Z,7.57
2023-03-29T01:18:33.682Z,7.49
2023-03-29T01:23:19.061Z,7.51
2023-03-29T01:28:02.508Z,7.60
2023-03-29T01:32:19.995Z,7.53
2023-03-29T01:36:49.460Z,7.55
2023-03-29T01:41:03.530Z,7.64
2023-03-29T01:45:20.705Z,7.57
2023-03-29T01:49:40.059Z,7.61
2023-03-29T01:54:03.052Z,7.60
2023-03-29T01:58:17.175Z,7.63
2023-03-29T02:02:30.885Z,7.60
2023-03-29T02:06:43.315Z,7.55
2023-03-29T02:10:55.074Z,7.68
2023-03-29T02:15:12.548Z,7.68
2023-03-29T02:19:25.859Z,7.70
2023-03-29T02:23:45.287Z,7.55
2023-03-29T02:27:57.682Z,7.75
2023-03-29T02:32:16.812Z,7.77
2023-03-29T02:36:38.275Z,7.74
2023-03-29T02:40:50.037Z,7.80
2023-03-29T02:45:05.048Z,7.77
2023-03-29T02:49:17.106Z,7.77
2023-03-29T02:54:09.336Z,7.75
2023-03-29T02:58:28.741Z,7.56
2023-03-29T03:02:40.711Z,7.64
2023-03-29T03:06:54.542Z,7.58
2023-03-29T03:11:07.069Z,7.45
2023-03-29T03:15:18.714Z,7.50
2023-03-29T03:19:31.574Z,7.55
2023-03-29T03:23:43.644Z,7.36
2023-03-29T03:27:56.035Z,7.53
2023-03-29T03:32:09.883Z,7.51
2023-03-29T03:36:29.188Z,7.54
2023-03-29T03:40:42.586Z,7.48
2023-03-29T03:44:54.318Z,7.49
2023-03-29T03:49:35.537Z,7.58
2023-03-29T03:53:47.324Z,7.57
2023-03-29T03:57:59.682Z,7.66
2023-03-29T04:02:12.334Z,7.59
2023-03-29T04:06:25.499Z,7.72
2023-03-29T04:10:58.982Z,7.72
2023-03-29T04:15:17.892Z,7.77
2023-03-29T04:19:36.585Z,7.78
2023-03-29T04:23:48.336Z,7.79
2023-03-29T04:28:00.618Z,7.67
2023-03-29T04:32:19.955Z,7.64
2023-03-29T04:36:41.773Z,7.75
2023-03-29T04:41:03.827Z,7.84
2023-03-29T04:45:34.602Z,7.89
2023-03-29T04:50:09.869Z,7.75
2023-03-29T04:54:26.482Z,7.95
2023-03-29T04:59:07.179Z,7.93
2023-03-29T05:03:18.909Z,7.94
2023-03-29T05:07:44.376Z,7.92
2023-03-29T05:11:57.092Z,7.95
2023-03-29T05:16:11.293Z,7.97
2023-03-29T05:20:24.921Z,7.98
2023-03-29T05:24:37.564Z,7.97
2023-03-29T05:28:57.021Z,8.07
2023-03-29T05:33:08.977Z,8.06
2023-03-29T05:37:20.847Z,8.15
2023-03-29T05:41:44.690Z,8.15
2023-03-29T05:46:16.783Z,8.22
2023-03-29T05:50:34.610Z,8.23
2023-03-29T05:54:46.426Z,8.24
2023-03-29T05:58:58.703Z,8.29
2023-03-29T06:03:23.835Z,8.31
2023-03-29T06:07:38.296Z,8.28
2023-03-29T06:11:59.513Z,8.40
2023-03-29T06:16:14.136Z,8.44
2023-03-29T06:20:26.292Z,8.49
2023-03-29T06:24:44.793Z,8.58
2023-03-29T06:29:08.527Z,8.66
2023-03-29T06:33:20.880Z,8.70
2023-03-29T06:37:50.849Z,8.86
2023-03-29T06:42:21.610Z,9.10
2023-03-29T06:46:52.193Z,9.01
2023-03-29T06:51:06.008Z,9.06
2023-03-29T06:55:18.715Z,9.16
2023-03-29T07:05:42.295Z,9.56
2023-03-29T07:10:01.853Z,9.69
2023-03-29T07:14:32.059Z,9.72
2023-03-29T07:18:44.331Z,9.64
2023-03-29T07:23:01.680Z,9.65
2023-03-29T07:27:13.411Z,9.58
2023-03-29T07:31:24.981Z,9.73
2023-03-29T07:35:47.907Z,9.82
2023-03-29T07:40:01.359Z,9.92
2023-03-29T07:44:48.556Z,10.06
2023-03-29T07:49:00.759Z,10.17
2023-03-29T07:53:12.535Z,10.28
2023-03-29T07:57:25.569Z,10.40
2023-03-29T08:01:40.924Z,10.41
2023-03-29T08:06:03.227Z,10.59
2023-03-29T08:10:22.237Z,10.67
2023-03-29T08:14:34.111Z,10.71
2023-03-29T08:18:51.151Z,10.84
2023-03-29T08:23:05.222Z,10.95
2023-03-29T08:27:17.273Z,11.00
2023-03-29T08:31:29.104Z,11.01
2023-03-29T08:35:41.232Z,11.06
2023-03-29T08:40:05.636Z,11.22
2023-03-29T08:45:18.666Z,11.61
2023-03-29T08:49:36.572Z,11.93
2023-03-29T08:54:05.459Z,12.15
2023-03-29T08:58:47.996Z,12.46
2023-03-29T09:03:02.354Z,12.49
2023-03-29T09:07:14.950Z,12.44
2023-03-29T09:17:29.442Z,12.17
2023-03-29T09:21:46.633Z,12.14
2023-03-29T09:26:17.097Z,12.29
2023-03-29T09:31:21.613Z,12.81
2023-03-29T09:35:51.446Z,13.23
2023-03-29T09:40:11.188Z,13.41
2023-03-29T09:44:53.526Z,13.41
2023-03-29T09:49:17.631Z,13.55
2023-03-29T09:53:29.979Z,13.75
2023-03-29T09:58:15.710Z,13.91
2023-03-29T10:02:32.205Z,13.84
2023-03-29T10:06:50.316Z,13.63
2023-03-29T10:11:28.825Z,13.69
2023-03-29T10:15:40.449Z,13.62
2023-03-29T10:19:56.990Z,13.65
2023-03-29T10:24:09.259Z,13.79
2023-03-29T10:28:22.689Z,13.95
2023-03-29T10:32:40.367Z,14.12
2023-03-29T10:36:58.420Z,14.25
2023-03-29T10:41:12.709Z,14.35
2023-03-29T10:45:35.137Z,14.28
2023-03-29T10:49:56.659Z,14.11
2023-03-29T10:54:14.586Z,13.90
2023-03-29T10:59:11.200Z,13.84
2023-03-29T11:03:33.279Z,13.72
2023-03-29T11:08:08.690Z,13.82
2023-03-29T11:12:38.855Z,14.11
2023-03-29T11:17:15.638Z,14.21
2023-03-29T11:22:02.450Z,14.07
2023-03-29T11:27:00.684Z,14.06
2023-03-29T11:31:23.294Z,14.16
2023-03-29T11:35:48.046Z,14.17
2023-03-29T11:40:29.837Z,14.07
2023-03-29T11:44:43.931Z,13.90
2023-03-29T11:49:02.501Z,14.09
2023-03-29T11:53:24.348Z,14.17
2023-03-29T11:57:52.721Z,14.23
2023-03-29T12:02:16.925Z,14.27
2023-03-29T12:06:36.062Z,14.44
2023-03-29T12:11:30.158Z,14.54
2023-03-29T12:15:49.734Z,14.35
2023-03-29T12:20:33.561Z,14.37
2023-03-29T12:24:51.035Z,14.34
2023-03-29T12:29:50.606Z,14.37
2023-03-29T12:34:40.674Z,14.46
2023-03-29T12:39:17.701Z,14.36
2023-03-29T12:43:49.170Z,14.30
2023-03-29T12:48:27.270Z,14.29
2023-03-29T12:52:42.874Z,14.25
2023-03-29T12:57:18.212Z,14.18
2023-03-29T13:01:31.290Z,14.13
2023-03-29T13:05:44.200Z,14.09
2023-03-29T13:10:03.064Z,14.11
2023-03-29T13:14:20.079Z,14.28
2023-03-29T13:18:58.989Z,14.49
2023-03-29T13:23:38.189Z,14.81
2023-03-29T13:27:58.970Z,15.21
2023-03-29T13:32:33.848Z,15.45
2023-03-29T13:37:06.745Z,15.66
2023-03-29T13:41:38.906Z,15.78
2023-03-29T13:45:56.614Z,15.97
2023-03-29T13:50:20.503Z,16.00
2023-03-29T13:54:42.864Z,15.94
2023-03-29T13:59:03.686Z,15.95
2023-03-29T14:03:18.336Z,15.90
2023-03-29T14:07:33.676Z,15.99
2023-03-29T14:11:47.265Z,15.92
2023-03-29T14:16:02.973Z,15.79
2023-03-29T14:20:16.034Z,15.80
2023-03-29T14:24:48.143Z,15.78
2023-03-29T14:29:01.394Z,15.79
2023-03-29T14:33:32.462Z,15.79
2023-03-29T14:37:44.845Z,15.72
2023-03-29T14:41:59.815Z,15.78
2023-03-29T14:46:14.447Z,15.81
2023-03-29T14:50:29.265Z,15.90
2023-03-29T14:54:45.664Z,15.92
2023-03-29T14:58:57.660Z,15.96
2023-03-29T15:03:15.961Z,16.01
2023-03-29T15:07:28.400Z,16.07
2023-03-29T15:11:40.192Z,16.09
2023-03-29T15:16:00.746Z,16.20
2023-03-29T15:20:14.745Z,16.21
2023-03-29T15:24:31.956Z,16.20
2023-03-29T15:28:49.839Z,16.14
2023-03-29T15:33:13.768Z,16.32
2023-03-29T15:37:26.224Z,16.40
2023-03-29T15:41:37.884Z,16.54
2023-03-29T15:45:49.954Z,16.56
2023-03-29T15:50:02.103Z,16.60
2023-03-29T15:54:17.097Z,16.62
2023-03-29T15:58:31.516Z,16.50
2023-03-29T16:02:43.423Z,16.47
2023-03-29T16:06:56.073Z,16.13
2023-03-29T16:11:07.725Z,16.11
2023-03-29T16:15:23.826Z,16.21
2023-03-29T16:19:35.788Z,16.05
2023-03-29T16:25:03.421Z,16.10
2023-03-29T16:29:25.970Z,16.08
2023-03-29T16:33:38.144Z,16.08
2023-03-29T16:37:49.849Z,15.91
2023-03-29T16:42:01.488Z,15.76
2023-03-29T16:46:15.688Z,15.86
2023-03-29T16:50:27.470Z,15.82
2023-03-29T16:54:39.052Z,15.74
2023-03-29T16:58:50.672Z,15.65
2023-03-29T17:03:02.556Z,15.56
2023-03-29T17:07:14.460Z,15.47
2023-03-29T17:11:28.130Z,15.59
2023-03-29T17:15:40.136Z,15.44
2023-03-29T17:19:51.946Z,15.21
2023-03-29T17:24:03.761Z,15.26
2023-03-29T17:28:15.411Z,15.29
2023-03-29T17:32:27.138Z,15.19
2023-03-29T17:36:38.774Z,15.21
2023-03-29T17:40:54.584Z,14.95
2023-03-29T17:45:07.219Z,15.10
2023-03-29T17:49:18.896Z,14.84
2023-03-29T17:53:30.676Z,14.97
2023-03-29T17:57:43.657Z,14.87
2023-03-29T18:01:55.347Z,14.68
2023-03-29T18:06:07.460Z,14.86
2023-03-29T18:10:19.232Z,14.69
2023-03-29T18:14:30.900Z,14.73
2023-03-29T18:18:43.602Z,14.70
2023-03-29T18:22:55.593Z,14.61
2023-03-29T18:27:07.281Z,14.56
2023-03-29T18:31:19.837Z,14.49
2023-03-29T18:35:31.927Z,14.47
2023-03-29T18:39:45.825Z,14.38
2023-03-29T18:44:00.119Z,14.34
2023-03-29T18:48:11.939Z,14.26
2023-03-29T18:52:23.708Z,14.27
2023-03-29T18:56:36.037Z,14.20
2023-03-29T19:00:47.798Z,14.15
2023-03-29T19:04:59.604Z,14.10
2023-03-29T19:09:11.488Z,13.96
2023-03-29T19:13:23.198Z,13.90
2023-03-29T19:17:34.875Z,13.80
2023-03-29T19:21:50.123Z,13.56
2023-03-29T19:26:03.973Z,13.61
2023-03-29T19:30:18.188Z,13.30
2023-03-29T19:34:30.552Z,13.15
2023-03-29T19:38:42.605Z,13.31
2023-03-29T19:42:54.393Z,13.30
2023-03-29T19:47:06.168Z,13.35
2023-03-29T19:51:18.010Z,13.27
2023-03-29T19:55:29.760Z,13.35
2023-03-29T19:59:42.994Z,13.27
2023-03-29T20:03:54.730Z,13.31
2023-03-29T20:08:07.225Z,13.31
2023-03-29T20:12:18.955Z,13.32
2023-03-29T20:16:34.364Z,13.43
2023-03-29T20:20:46.891Z,13.38
2023-03-29T20:24:58.555Z,13.43
2023-03-29T20:29:10.199Z,13.42
2023-03-29T20:33:22.298Z,13.54
2023-03-29T20:37:34.024Z,13.54
2023-03-29T20:41:47.665Z,13.71
2023-03-29T20:46:00.349Z,13.83
2023-03-29T20:50:12.300Z,13.84
2023-03-29T20:54:25.750Z,13.86
2023-03-29T20:58:41.892Z,13.92
2023-03-29T21:03:00.495Z,13.86
2023-03-29T21:07:12.241Z,13.84
2023-03-29T21:11:23.892Z,13.87
2023-03-29T21:15:35.581Z,13.78
2023-03-29T21:19:47.290Z,13.86
2023-03-29T21:23:59.057Z,13.82
2023-03-29T21:28:13.063Z,13.72
2023-03-29T21:32:24.979Z,13.71
2023-03-29T21:36:36.889Z,13.66
2023-03-29T21:40:51.345Z,13.77
2023-03-29T21:45:03.634Z,13.74
2023-03-29T21:49:15.445Z,13.56
2023-03-29T21:53:27.188Z,13.68
2023-03-29T21:57:38.950Z,13.57
2023-03-29T22:01:51.056Z,13.64
2023-03-29T22:06:05.255Z,13.57
2023-03-29T22:10:17.305Z,13.52
2023-03-29T22:14:30.254Z,13.64
2023-03-29T22:18:42.511Z,13.54
2023-03-29T22:22:54.338Z,13.48
2023-03-29T22:27:06.865Z,13.47
2023-03-29T22:31:21.149Z,13.57
2023-03-29T22:35:35.409Z,13.46
2023-03-29T22:39:47.206Z,13.41
2023-03-29T22:44:01.217Z,13.47
2023-03-29T22:48:13.118Z,13.33
2023-03-29T22:52:25.927Z,13.23
2023-03-29T22:56:37.750Z,13.31
2023-03-29T23:00:49.817Z,13.18
2023-03-29T23:05:01.560Z,13.12
2023-03-29T23:09:15.838Z,13.18
2023-03-29T23:13:29.402Z,13.00
2023-03-29T23:17:42.132Z,13.01
2023-03-29T23:21:55.219Z,12.98
2023-03-29T23:26:09.273Z,12.84
2023-03-29T23:30:21.653Z,13.05
2023-03-29T23:34:33.721Z,12.92
2023-03-29T23:38:46.762Z,12.76
2023-03-29T23:42:59.746Z,12.58
2023-03-29T23:47:11.598Z,12.67
2023-03-29T23:51:28.107Z,12.77
2023-03-29T23:55:42.995Z,12.66
2023-03-29T23:59:56.258Z,12.60
